createdAt,value
2023-01-08T00:01:21.067Z,100053.38
2023-01-08T00:03:48.042Z,100054.13
2023-01-08T00:06:17.904Z,100046.13
2023-01-08T00:08:45.496Z,100052.56
2023-01-08T00:11:12.756Z,100049.34
2023-01-08T00:13:39.745Z,100038.31
2023-01-08T00:16:09.712Z,100041.41
2023-01-08T00:18:39.482Z,100036.28
2023-01-08T00:21:06.834Z,100034.03
2023-01-08T00:23:34.083Z,100025.75
2023-01-08T00:26:02.419Z,100030.72
2023-01-08T00:28:29.723Z,100030.94
2023-01-08T00:30:58.927Z,100038.38
2023-01-08T00:33:25.775Z,100037.34
2023-01-08T00:35:52.419Z,100032.44
2023-01-08T00:38:21.072Z,100023.09
2023-01-08T00:40:48.548Z,100023.63
2023-01-08T00:43:15.234Z,100014.53
2023-01-08T00:45:44.627Z,100013.66
2023-01-08T00:48:11.895Z,99995.69
2023-01-08T00:50:38.577Z,100000.16
2023-01-08T00:53:05.300Z,100000.31
2023-01-08T00:55:32.358Z,99990.63
2023-01-08T00:58:01.902Z,99993.78
2023-01-08T01:00:32.140Z,99983.28
2023-01-08T01:03:01.113Z,99988.25
2023-01-08T01:05:30.867Z,99981.44
2023-01-08T01:07:57.968Z,99969.31
2023-01-08T01:10:24.835Z,99970.47
2023-01-08T01:12:51.451Z,99984.63
2023-01-08T01:15:18.729Z,99999.56
2023-01-08T01:17:51.167Z,100005.84
2023-01-08T01:20:17.726Z,99991.34
2023-01-08T01:22:47.008Z,100006.38
2023-01-08T01:25:13.700Z,99998.78
2023-01-08T01:27:40.485Z,100000.78
2023-01-08T01:30:11.066Z,100008.31
2023-01-08T01:32:38.049Z,100006.84
2023-01-08T01:35:05.112Z,100010.41
2023-01-08T01:37:35.095Z,100002.44
2023-01-08T01:40:04.693Z,100001.25
2023-01-08T01:42:43.630Z,99991.41
2023-01-08T01:45:14.018Z,99986.63
2023-01-08T01:47:41.875Z,99981.69
2023-01-08T01:50:39.690Z,99987.16
2023-01-08T01:53:31.871Z,99980.53
2023-01-08T01:56:06.658Z,99989.31
2023-01-08T01:58:36.187Z,99983.28
2023-01-08T02:01:07.263Z,99981.72
2023-01-08T02:03:36.842Z,99983.53
2023-01-08T02:06:12.735Z,99989.47
2023-01-08T02:08:42.257Z,99977.22
2023-01-08T02:11:27.360Z,99959.34
2023-01-08T02:14:15.676Z,99964.84
2023-01-08T02:16:43.460Z,99969.03
2023-01-08T02:19:22.481Z,99967.69
2023-01-08T02:22:06.910Z,99968.25
2023-01-08T02:25:02.634Z,99961.44
2023-01-08T02:27:32.071Z,99956.44
2023-01-08T02:30:00.153Z,99970.25
2023-01-08T02:32:29.931Z,99952.94
2023-01-08T02:34:56.885Z,99948.38
2023-01-08T02:37:23.760Z,99947.53
2023-01-08T02:40:01.996Z,99937.88
2023-01-08T02:42:53.825Z,99935.28
2023-01-08T02:45:28.897Z,99926.50
2023-01-08T02:48:28.471Z,99921.97
2023-01-08T02:51:03.269Z,99915.19
2023-01-08T02:53:37.702Z,99900.19
2023-01-08T02:56:14.746Z,99910.31
2023-01-08T02:58:42.049Z,99911.41
2023-01-08T03:01:12.019Z,99913.94
2023-01-08T03:03:41.821Z,99921.38
2023-01-08T03:06:13.902Z,99929.59
2023-01-08T03:08:46.801Z,99921.56
2023-01-08T03:11:18.957Z,99936.19
2023-01-08T03:13:57.625Z,99922.13
2023-01-08T03:16:36.832Z,99917.84
2023-01-08T03:19:13.386Z,99931.84
2023-01-08T03:21:45.045Z,99927.50
2023-01-08T03:24:19.259Z,99924.69
2023-01-08T03:26:48.667Z,99919.41
2023-01-08T03:29:18.922Z,99919.22
2023-01-08T03:31:47.868Z,99911.31
2023-01-08T03:34:16.628Z,99914.84
2023-01-08T03:36:48.502Z,99919.75
2023-01-08T03:39:29.706Z,99927.19
2023-01-08T03:42:00.031Z,99915.38
2023-01-08T03:44:26.775Z,99918.31
2023-01-08T03:46:56.193Z,99904.31
2023-01-08T03:49:26.630Z,99919.84
2023-01-08T03:51:54.416Z,99911.09
2023-01-08T03:54:25.977Z,99919.69
2023-01-08T03:56:53.042Z,99910.81
2023-01-08T03:59:23.596Z,99913.69
2023-01-08T04:01:50.833Z,99919.28
2023-01-08T04:04:18.167Z,99921.78
2023-01-08T04:06:45.377Z,99922.28
2023-01-08T04:09:13.313Z,99922.13
2023-01-08T04:11:41.333Z,99921.94
2023-01-08T04:14:12.438Z,99928.44
2023-01-08T04:16:39.120Z,99919.88
2023-01-08T04:19:16.165Z,99919.50
2023-01-08T04:21:42.985Z,99921.19
2023-01-08T04:24:11.695Z,99911.50
2023-01-08T04:26:41.178Z,99900.84
2023-01-08T04:29:07.978Z,99903.97
2023-01-08T04:31:34.621Z,99897.56
2023-01-08T04:34:01.508Z,99905.91
2023-01-08T04:36:28.111Z,99910.22
2023-01-08T04:38:54.850Z,99897.25
2023-01-08T04:41:22.769Z,99886.22
2023-01-08T04:43:49.880Z,99891.31
2023-01-08T04:46:16.814Z,99878.06
2023-01-08T04:48:43.527Z,99877.25
2023-01-08T04:51:10.181Z,99882.56
2023-01-08T04:53:41.536Z,99867.41
2023-01-08T04:56:12.071Z,99870.22
2023-01-08T04:58:44.014Z,99863.72
2023-01-08T05:01:21.329Z,99861.44
2023-01-08T05:03:52.465Z,99860.16
2023-01-08T05:06:19.589Z,99852.47
2023-01-08T05:08:46.616Z,99853.16
2023-01-08T05:11:13.893Z,99841.25
2023-01-08T05:13:41.691Z,99844.44
2023-01-08T05:16:08.432Z,99840.97
2023-01-08T05:18:38.190Z,99843.03
2023-01-08T05:21:05.710Z,99841.38
2023-01-08T05:23:36.204Z,99841.44
2023-01-08T05:26:06.105Z,99839.69
2023-01-08T05:28:33.905Z,99837.44
2023-01-08T05:31:00.529Z,99847.94
2023-01-08T05:33:27.521Z,99843.94
2023-01-08T05:35:54.561Z,99841.41
2023-01-08T05:38:21.932Z,99842.75
2023-01-08T05:40:51.827Z,99845.38
2023-01-08T05:43:18.913Z,99842.56
2023-01-08T05:45:48.722Z,99845.63
2023-01-08T05:48:15.404Z,99840.31
2023-01-08T05:50:42.265Z,99842.56
2023-01-08T05:53:09.813Z,99844.19
2023-01-08T05:55:36.604Z,99844.06
2023-01-08T05:58:04.871Z,99846.03
2023-01-08T06:00:32.687Z,99845.09
2023-01-08T06:02:59.848Z,99843.41
2023-01-08T06:05:26.866Z,99835.88
2023-01-08T06:07:53.882Z,99840.41
2023-01-08T06:10:20.554Z,99836.97
2023-01-08T06:12:47.554Z,99832.84
2023-01-08T06:15:14.347Z,99839.03
2023-01-08T06:17:41.753Z,99838.06
2023-01-08T06:20:09.342Z,99829.00
2023-01-08T06:22:36.028Z,99824.63
2023-01-08T06:25:03.514Z,99828.94
2023-01-08T06:27:31.999Z,99823.31
2023-01-08T06:29:58.779Z,99829.41
2023-01-08T06:32:25.414Z,99832.13
2023-01-08T06:34:56.377Z,99829.09
2023-01-08T06:37:23.059Z,99825.00
2023-01-08T06:39:49.640Z,99831.19
2023-01-08T06:42:16.403Z,99830.34
2023-01-08T06:44:43.070Z,99822.41
2023-01-08T06:47:09.609Z,99828.44
2023-01-08T06:49:36.473Z,99823.31
2023-01-08T06:52:03.588Z,99822.78
2023-01-08T06:54:30.281Z,99829.13
2023-01-08T06:56:56.873Z,99821.63
2023-01-08T06:59:25.714Z,99819.56
2023-01-08T07:01:52.715Z,99816.97
2023-01-08T07:04:23.073Z,99825.03
2023-01-08T07:06:53.975Z,99819.97
2023-01-08T07:09:26.867Z,99810.44
2023-01-08T07:11:53.893Z,99817.66
2023-01-08T07:14:20.805Z,99817.25
2023-01-08T07:16:48.210Z,99818.66
2023-01-08T07:19:15.188Z,99809.22
2023-01-08T07:21:45.192Z,99813.69
2023-01-08T07:24:14.677Z,99816.47
2023-01-08T07:26:41.550Z,99808.53
2023-01-08T07:29:13.720Z,99813.59
2023-01-08T07:31:40.755Z,99816.66
2023-01-08T07:34:07.712Z,99813.34
2023-01-08T07:36:34.451Z,99806.50
2023-01-08T07:39:03.798Z,99813.75
2023-01-08T07:41:32.777Z,99817.63
2023-01-08T07:44:04.570Z,99809.78
2023-01-08T07:46:32.683Z,99819.06
2023-01-08T07:49:00.255Z,99806.66
2023-01-08T07:51:26.988Z,99806.50
2023-01-08T07:53:56.194Z,99804.25
2023-01-08T07:56:23.461Z,99802.31
2023-01-08T07:58:50.035Z,99802.38
2023-01-08T08:01:16.859Z,99799.88
2023-01-08T08:03:43.842Z,99792.31
2023-01-08T08:06:10.477Z,99793.63
2023-01-08T08:08:37.313Z,99800.34
2023-01-08T08:11:04.610Z,99796.44
2023-01-08T08:13:34.272Z,99792.50
2023-01-08T08:16:07.485Z,99793.03
2023-01-08T08:18:34.289Z,99795.56
2023-01-08T08:21:06.150Z,99798.88
2023-01-08T08:23:35.809Z,99789.41
2023-01-08T08:26:08.241Z,99792.31
2023-01-08T08:28:35.260Z,99794.34
2023-01-08T08:31:01.981Z,99788.56
2023-01-08T08:33:29.169Z,99789.50
2023-01-08T08:35:56.166Z,99788.47
2023-01-08T08:38:24.349Z,99781.94
2023-01-08T08:40:51.124Z,99791.22
2023-01-08T08:43:17.785Z,99787.91
2023-01-08T08:45:48.168Z,99789.88
2023-01-08T08:48:16.720Z,99787.28
2023-01-08T08:50:43.487Z,99787.44
2023-01-08T08:53:10.600Z,99782.50
2023-01-08T08:55:37.168Z,99782.97
2023-01-08T08:58:11.217Z,99785.28
2023-01-08T09:00:42.483Z,99785.03
2023-01-08T09:03:14.822Z,99786.16
2023-01-08T09:05:43.034Z,99792.22
2023-01-08T09:08:10.086Z,99788.47
2023-01-08T09:10:42.427Z,99786.53
2023-01-08T09:13:09.392Z,99788.56
2023-01-08T09:15:37.404Z,99791.94
2023-01-08T09:18:04.907Z,99799.00
2023-01-08T09:20:31.891Z,99789.41
2023-01-08T09:23:00.183Z,99786.41
2023-01-08T09:25:27.203Z,99794.94
2023-01-08T09:28:06.890Z,99788.06
2023-01-08T09:30:34.648Z,99796.81
2023-01-08T09:33:03.317Z,99798.50
2023-01-08T09:35:34.718Z,99798.88
2023-01-08T09:38:02.068Z,99791.34
2023-01-08T09:40:53.708Z,99789.63
2023-01-08T09:43:22.813Z,99783.59
2023-01-08T09:45:54.021Z,99776.19
2023-01-08T09:48:25.851Z,99785.22
2023-01-08T09:50:52.693Z,99782.75
2023-01-08T09:53:20.142Z,99781.16
2023-01-08T09:56:08.580Z,99781.63
2023-01-08T09:58:41.486Z,99784.81
2023-01-08T10:01:13.973Z,99775.56
2023-01-08T10:03:49.951Z,99772.75
2023-01-08T10:06:18.110Z,99768.50
2023-01-08T10:08:47.074Z,99772.13
2023-01-08T10:11:15.815Z,99771.72
2023-01-08T10:13:48.398Z,99764.09
2023-01-08T10:16:27.615Z,99775.56
2023-01-08T10:18:54.855Z,99762.59
2023-01-08T10:21:37.814Z,99758.44
2023-01-08T10:24:04.972Z,99770.88
2023-01-08T10:26:36.438Z,99764.97
2023-01-08T10:29:17.174Z,99762.38
2023-01-08T10:31:53.776Z,99761.81
2023-01-08T10:34:26.580Z,99752.38
2023-01-08T10:36:55.196Z,99756.63
2023-01-08T10:39:31.426Z,99750.75
2023-01-08T10:42:05.793Z,99754.84
2023-01-08T10:44:33.745Z,99751.69
2023-01-08T10:47:01.769Z,99737.91
2023-01-08T10:49:39.387Z,99736.88
2023-01-08T10:52:23.260Z,99734.63
2023-01-08T10:54:50.248Z,99740.63
2023-01-08T10:57:30.021Z,99733.25
2023-01-08T10:59:57.430Z,99732.03
2023-01-08T11:02:38.164Z,99725.53
2023-01-08T11:05:08.750Z,99726.81
2023-01-08T11:07:36.083Z,99712.66
2023-01-08T11:10:04.889Z,99714.97
2023-01-08T11:12:36.606Z,99723.16
2023-01-08T11:15:07.189Z,99714.56
2023-01-08T11:17:34.835Z,99717.78
2023-01-08T11:20:20.437Z,99731.41
2023-01-08T11:22:47.529Z,99731.34
2023-01-08T11:25:18.529Z,99738.66
2023-01-08T11:27:46.920Z,99742.38
2023-01-08T11:30:23.370Z,99741.69
2023-01-08T11:32:52.985Z,99732.81
2023-01-08T11:35:36.452Z,99734.88
2023-01-08T11:38:05.511Z,99750.41
2023-01-08T11:40:57.532Z,99729.31
2023-01-08T11:43:53.193Z,99710.13
2023-01-08T11:46:28.515Z,99718.44
2023-01-08T11:49:23.907Z,99709.34
2023-01-08T11:52:12.123Z,99701.06
2023-01-08T11:54:38.611Z,99694.84
2023-01-08T11:57:30.009Z,99695.31
2023-01-08T12:00:30.610Z,99690.19
2023-01-08T12:03:08.128Z,99684.00
2023-01-08T12:05:46.875Z,99675.31
2023-01-08T12:08:43.255Z,99676.31
2023-01-08T12:11:28.798Z,99674.25
2023-01-08T12:14:07.199Z,99676.56
2023-01-08T12:17:06.261Z,99663.03
2023-01-08T12:20:04.673Z,99665.84
2023-01-08T12:22:52.851Z,99665.00
2023-01-08T12:26:01.368Z,99658.19
2023-01-08T12:28:46.693Z,99662.16
2023-01-08T12:32:01.888Z,99651.00
2023-01-08T12:34:38.936Z,99653.59
2023-01-08T12:37:18.895Z,99642.28
2023-01-08T12:40:02.216Z,99638.84
2023-01-08T12:42:30.759Z,99639.66
2023-01-08T12:45:00.696Z,99638.19
2023-01-08T12:47:31.126Z,99635.66
2023-01-08T12:50:19.950Z,99643.88
2023-01-08T12:53:24.440Z,99635.66
2023-01-08T12:56:03.379Z,99631.13
2023-01-08T12:58:53.958Z,99628.66
2023-01-08T13:01:26.701Z,99629.41
2023-01-08T13:03:57.403Z,99624.34
2023-01-08T13:06:27.744Z,99623.78
2023-01-08T13:09:01.482Z,99618.88
2023-01-08T13:11:38.568Z,99618.16
2023-01-08T13:14:15.760Z,99624.56
2023-01-08T13:16:46.405Z,99615.09
2023-01-08T13:19:44.685Z,99614.13
2023-01-08T13:22:41.012Z,99607.38
2023-01-08T13:25:26.539Z,99603.59
2023-01-08T13:27:53.918Z,99596.28
2023-01-08T13:30:44.148Z,99597.22
2023-01-08T13:33:43.405Z,99593.78
2023-01-08T13:36:13.331Z,99584.72
2023-01-08T13:38:47.152Z,99585.88
2023-01-08T13:41:30.280Z,99579.50
2023-01-08T13:44:01.479Z,99572.34
2023-01-08T13:46:30.219Z,99574.22
2023-01-08T13:49:04.436Z,99560.84
2023-01-08T13:51:50.751Z,99568.00
2023-01-08T13:54:30.380Z,99566.94
2023-01-08T13:57:04.963Z,99561.19
2023-01-08T13:59:42.865Z,99557.81
2023-01-08T14:02:35.596Z,99554.25
2023-01-08T14:05:12.759Z,99557.50
2023-01-08T14:07:39.706Z,99557.16
2023-01-08T14:10:13.737Z,99547.41
2023-01-08T14:12:40.850Z,99555.38
2023-01-08T14:15:11.455Z,99554.34
2023-01-08T14:17:39.136Z,99559.75
2023-01-08T14:20:15.246Z,99551.97
2023-01-08T14:22:43.550Z,99545.56
2023-01-08T14:25:17.016Z,99556.66
2023-01-08T14:27:59.380Z,99553.97
2023-01-08T14:30:26.980Z,99551.84
2023-01-08T14:32:55.751Z,99543.28
2023-01-08T14:35:31.536Z,99558.97
2023-01-08T14:38:08.176Z,99556.88
2023-01-08T14:40:46.819Z,99553.13
2023-01-08T14:43:18.626Z,99560.22
2023-01-08T14:45:51.847Z,99564.34
2023-01-08T14:48:43.929Z,99562.34
2023-01-08T14:51:14.490Z,99557.19
2023-01-08T14:53:46.861Z,99563.69
2023-01-08T14:56:42.139Z,99561.59
2023-01-08T14:59:18.473Z,99565.25
2023-01-08T15:01:56.435Z,99562.13
2023-01-08T15:04:26.151Z,99546.81
2023-01-08T15:07:30.176Z,99554.78
2023-01-08T15:10:24.144Z,99557.00
2023-01-08T15:13:00.325Z,99554.19
2023-01-08T15:15:27.300Z,99558.31
2023-01-08T15:17:54.818Z,99556.84
2023-01-08T15:20:25.563Z,99555.72
2023-01-08T15:22:52.807Z,99553.94
2023-01-08T15:25:25.595Z,99543.06
2023-01-08T15:28:00.785Z,99548.53
2023-01-08T15:30:38.101Z,99548.81
2023-01-08T15:33:20.509Z,99545.41
2023-01-08T15:35:48.356Z,99558.69
2023-01-08T15:38:15.813Z,99549.50
2023-01-08T15:40:42.646Z,99542.41
2023-01-08T15:43:13.162Z,99541.25
2023-01-08T15:45:46.287Z,99540.19
2023-01-08T15:48:13.591Z,99546.16
2023-01-08T15:50:43.053Z,99542.41
2023-01-08T15:53:22.442Z,99536.53
2023-01-08T15:55:50.376Z,99532.25
2023-01-08T15:58:17.063Z,99531.19
2023-01-08T16:00:45.632Z,99528.53
2023-01-08T16:03:13.908Z,99539.44
2023-01-08T16:05:43.533Z,99536.72
2023-01-08T16:08:10.960Z,99541.19
2023-01-08T16:10:38.276Z,99537.72
2023-01-08T16:13:05.047Z,99532.50
2023-01-08T16:15:31.641Z,99532.81
2023-01-08T16:18:01.801Z,99525.75
2023-01-08T16:20:28.586Z,99531.63
2023-01-08T16:22:56.644Z,99526.69
2023-01-08T16:25:24.717Z,99529.31
2023-01-08T16:27:51.980Z,99531.63
2023-01-08T16:30:19.189Z,99537.34
2023-01-08T16:32:52.053Z,99531.81
2023-01-08T16:35:22.235Z,99525.13
2023-01-08T16:37:49.101Z,99532.19
2023-01-08T16:40:16.590Z,99528.56
2023-01-08T16:42:43.436Z,99526.09
2023-01-08T16:45:10.480Z,99513.19
2023-01-08T16:47:38.701Z,99522.13
2023-01-08T16:50:06.489Z,99516.97
2023-01-08T16:52:35.381Z,99509.31
2023-01-08T16:55:02.057Z,99505.22
2023-01-08T16:57:28.866Z,99503.44
2023-01-08T16:59:55.626Z,99511.75
2023-01-08T17:02:22.632Z,99508.22
2023-01-08T17:04:52.062Z,99499.53
2023-01-08T17:07:18.672Z,99493.44
2023-01-08T17:09:47.771Z,99498.69
2023-01-08T17:12:22.248Z,99500.44
2023-01-08T17:14:50.404Z,99499.13
2023-01-08T17:17:17.155Z,99493.91
2023-01-08T17:19:43.808Z,99497.03
2023-01-08T17:22:10.430Z,99488.38
2023-01-08T17:24:37.053Z,99481.84
2023-01-08T17:27:04.070Z,99485.81
2023-01-08T17:29:30.727Z,99470.91
2023-01-08T17:31:57.616Z,99467.97
2023-01-08T17:34:24.699Z,99468.94
2023-01-08T17:36:51.627Z,99470.41
2023-01-08T17:39:23.403Z,99459.97
2023-01-08T17:42:08.986Z,99458.22
2023-01-08T17:44:35.783Z,99460.53
2023-01-08T17:47:02.674Z,99468.94
2023-01-08T17:49:32.015Z,99457.84
2023-01-08T17:51:58.813Z,99466.88
2023-01-08T17:54:25.939Z,99477.91
2023-01-08T17:56:53.857Z,99472.13
2023-01-08T17:59:21.482Z,99485.69
2023-01-08T18:01:49.431Z,99478.84
2023-01-08T18:04:16.356Z,99480.13
2023-01-08T18:06:44.047Z,99475.19
2023-01-08T18:09:12.386Z,99470.53
2023-01-08T18:11:40.469Z,99467.34
2023-01-08T18:14:07.538Z,99473.59
2023-01-08T18:16:34.888Z,99467.75
2023-01-08T18:19:01.844Z,99464.47
2023-01-08T18:21:28.572Z,99462.75
2023-01-08T18:23:55.541Z,99459.66
2023-01-08T18:26:23.087Z,99468.56
2023-01-08T18:28:51.737Z,99458.91
2023-01-08T18:31:19.187Z,99460.38
2023-01-08T18:33:49.675Z,99458.59
2023-01-08T18:36:16.698Z,99451.19
2023-01-08T18:38:44.391Z,99469.09
2023-01-08T18:41:33.457Z,99455.56
2023-01-08T18:44:01.091Z,99462.94
2023-01-08T18:46:28.017Z,99459.97
2023-01-08T18:48:55.251Z,99457.34
2023-01-08T18:51:22.835Z,99455.16
2023-01-08T18:53:49.916Z,99463.31
2023-01-08T18:56:27.448Z,99465.84
2023-01-08T18:58:54.585Z,99468.75
2023-01-08T19:01:21.295Z,99468.09
2023-01-08T19:03:48.365Z,99465.09
2023-01-08T19:06:18.422Z,99466.53
2023-01-08T19:08:45.748Z,99466.31
2023-01-08T19:11:13.293Z,99467.66
2023-01-08T19:13:40.679Z,99464.91
2023-01-08T19:16:11.148Z,99461.13
2023-01-08T19:18:38.716Z,99464.63
2023-01-08T19:21:11.440Z,99455.34
2023-01-08T19:23:39.908Z,99466.41
2023-01-08T19:26:07.654Z,99457.75
2023-01-08T19:28:34.251Z,99463.75
2023-01-08T19:31:04.930Z,99461.13
2023-01-08T19:33:31.881Z,99456.47
2023-01-08T19:36:05.706Z,99462.94
2023-01-08T19:38:32.485Z,99443.03
2023-01-08T19:41:03.297Z,99442.22
2023-01-08T19:43:42.315Z,99447.06
2023-01-08T19:46:10.293Z,99439.19
2023-01-08T19:48:41.037Z,99447.78
2023-01-08T19:51:09.587Z,99444.13
2023-01-08T19:53:38.222Z,99431.94
2023-01-08T19:56:10.612Z,99434.88
2023-01-08T19:58:38.129Z,99428.72
2023-01-08T20:01:13.340Z,99433.25
2023-01-08T20:03:41.905Z,99433.59
2023-01-08T20:06:17.387Z,99432.63
2023-01-08T20:08:46.262Z,99430.09
2023-01-08T20:11:14.236Z,99419.81
2023-01-08T20:13:47.084Z,99417.41
2023-01-08T20:16:16.456Z,99427.28
2023-01-08T20:18:44.148Z,99420.31
2023-01-08T20:21:26.785Z,99419.84
2023-01-08T20:23:59.315Z,99418.22
2023-01-08T20:26:30.099Z,99420.22
2023-01-08T20:28:57.771Z,99411.91
2023-01-08T20:31:26.583Z,99414.13
2023-01-08T20:33:53.298Z,99407.53
2023-01-08T20:36:22.390Z,99405.91
2023-01-08T20:38:57.331Z,99412.59
2023-01-08T20:41:29.154Z,99412.19
2023-01-08T20:43:58.211Z,99410.50
2023-01-08T20:46:29.582Z,99399.63
2023-01-08T20:48:59.796Z,99404.34
2023-01-08T20:51:26.520Z,99404.69
2023-01-08T20:53:53.219Z,99402.34
2023-01-08T20:56:19.977Z,99401.16
2023-01-08T20:58:48.426Z,99391.97
2023-01-08T21:01:15.094Z,99391.28
2023-01-08T21:03:42.528Z,99388.47
2023-01-08T21:06:12.133Z,99394.63
2023-01-08T21:08:40.698Z,99383.53
2023-01-08T21:11:09.590Z,99382.84
2023-01-08T21:13:37.536Z,99386.41
2023-01-08T21:16:10.659Z,99382.00
2023-01-08T21:18:40.508Z,99376.50
2023-01-08T21:21:08.279Z,99378.41
2023-01-08T21:23:35.341Z,99371.84
2023-01-08T21:26:09.721Z,99370.53
2023-01-08T21:28:41.088Z,99364.38
2023-01-08T21:31:15.306Z,99370.78
2023-01-08T21:33:43.427Z,99370.66
2023-01-08T21:36:13.831Z,99360.41
2023-01-08T21:38:41.278Z,99359.31
2023-01-08T21:41:11.135Z,99356.16
2023-01-08T21:43:56.580Z,99342.13
2023-01-08T21:46:30.844Z,99333.59
2023-01-08T21:48:57.697Z,99338.50
2023-01-08T21:51:43.091Z,99329.28
2023-01-08T21:54:09.642Z,99322.53
2023-01-08T21:56:36.293Z,99320.13
2023-01-08T21:59:03.710Z,99316.75
2023-01-08T22:01:33.721Z,99316.53
2023-01-08T22:04:00.631Z,99318.22
2023-01-08T22:06:27.292Z,99312.59
2023-01-08T22:08:56.302Z,99315.78
2023-01-08T22:11:24.119Z,99315.53
2023-01-08T22:13:53.432Z,99305.97
2023-01-08T22:16:22.485Z,99309.88
2023-01-08T22:18:49.330Z,99305.25
2023-01-08T22:21:17.042Z,99301.66
2023-01-08T22:23:43.885Z,99295.09
2023-01-08T22:26:12.107Z,99292.72
2023-01-08T22:28:39.528Z,99277.19
2023-01-08T22:31:08.376Z,99270.50
2023-01-08T22:33:35.135Z,99271.47
2023-01-08T22:36:03.635Z,99265.25
2023-01-08T22:38:30.407Z,99268.44
2023-01-08T22:40:59.892Z,99272.72
2023-01-08T22:43:26.952Z,99259.75
2023-01-08T22:45:55.464Z,99254.31
2023-01-08T22:48:22.935Z,99254.59
2023-01-08T22:50:53.772Z,99257.13
2023-01-08T22:53:20.686Z,99257.53
2023-01-08T22:55:48.327Z,99253.59
2023-01-08T22:58:16.312Z,99251.50
2023-01-08T23:00:43.945Z,99251.16
2023-01-08T23:03:11.515Z,99249.41
2023-01-08T23:05:41.189Z,99241.66
2023-01-08T23:08:09.799Z,99237.44
2023-01-08T23:10:37.287Z,99234.69
2023-01-08T23:13:04.179Z,99228.38
2023-01-08T23:15:32.939Z,99230.06
2023-01-08T23:18:00.215Z,99242.59
2023-01-08T23:20:29.627Z,99239.63
2023-01-08T23:22:59.232Z,99241.66
2023-01-08T23:25:27.860Z,99230.94
2023-01-08T23:27:55.065Z,99246.25
2023-01-08T23:30:22.317Z,99238.03
2023-01-08T23:32:52.339Z,99237.28
2023-01-08T23:35:19.032Z,99221.06
2023-01-08T23:37:46.012Z,99216.38
2023-01-08T23:40:14.234Z,99213.22
2023-01-08T23:42:41.090Z,99207.28
2023-01-08T23:45:11.380Z,99196.28
2023-01-08T23:47:38.041Z,99201.66
2023-01-08T23:50:07.316Z,99199.72
2023-01-08T23:52:36.084Z,99210.91
2023-01-08T23:55:09.492Z,99196.13
2023-01-08T23:57:38.067Z,99194.22
